Kezdőlap
METAR-TAF:

METAR-TAF

Repülőterek :

Kastamonu, Törökország

földrajzi szélesség: 41-19-01N, földrajzi hosszúság: 33-47-46E, magasság: 1073 m

Jelenlegi meteorológiai megfigyelések

A jelentés 1 órával és 10 perccel ezelõtt készült, 04:50 UTC
Szélcsend
Hőmérséklet 8°C
Páratartalom 100%
Légköri nyomás 1019 hPa
Látótávolság: 0100 m
köd

METAR: LTAL 230450Z 00000KT 0100 R18/0100N FG VV001 08/08 Q1019

Idő: 09:00 (06:00 UTC)

Előrejelzés

A jelentés 1 órával és 2 perccel ezelõtt készült, 04:58 UTC
Az előrejelzés 23-én 04 óra UTC és 23-én 12 óra UTC között érvényes
Különbözõ irányokból fújó szél 2 kt
Látótávolság: 0400 m
200 lábon
köd
23-én 07 óra UTC és 23-én 09 óra UTC között fokozatosan kialakuló
Látótávolság: 6000 m

TAF: LTAL 230458Z 2304/2312 VRB02KT 0400 FG VV002 BECMG 2307/2309 6000 NSC

Meteorológiai megfigyelések és előrejelzések több, mint 4000 repülőtéren (METAR és TAF jelentéseket).

A térképen piros és sárga pontok jelzik az elérhető meteorológiai állomásokat.

Mozgassa az egeret a pont fölött, hogy megjelenjen az állomás neve.

Azután kattintson az időjárási megfigyelések és előrejelzések megtekintéséhez.

A térkép megváltoztatása: kattintson a fekete keresztel jelölt zöld gombra ráközelítéshez, a vonallal jelölt zöld gombra távolításhoz, vagy a zöld nyilakra a szomszédos térképek eléréséhez.


METAR-TAF: